Time;durP1;ratioP1;P1;durP2;ratioP2;P2;SDS_P1;SDS_P2;PMS_P1;PMS_P2;Temp;Humidity;BMP_temperature;BMP_pressure;BME280_temperature;BME280_humidity;BME280_pressure;Samples;Min_cycle;Max_cycle;Signal;HPM_P1;HPM_P2
2022/09/29 00:01:05;;;;;;;16.70;12.53;;;4.60;99.90;;;;;;5017802;28;20223;-83
2022/09/29 00:03:31;;;;;;;17.83;12.50;;;4.60;99.90;;;;;;5023396;28;20253;-84
2022/09/29 00:05:58;;;;;;;15.23;9.93;;;4.50;99.90;;;;;;5023061;28;20321;-84
2022/09/29 00:08:28;;;;;;;14.93;11.17;;;4.50;99.90;;;;;;5021995;28;20229;-83
2022/09/29 00:10:55;;;;;;;19.20;12.03;;;4.50;99.90;;;;;;5037668;28;20229;-83
2022/09/29 00:13:22;;;;;;;15.33;11.60;;;4.40;99.90;;;;;;5024536;28;20339;-83
2022/09/29 00:15:57;;;;;;;15.70;11.43;;;4.40;99.90;;;;;;5020698;28;20237;-83
2022/09/29 00:18:25;;;;;;;15.83;12.37;;;4.30;99.90;;;;;;5021108;28;20228;-83
2022/09/29 00:21:03;;;;;;;15.57;11.23;;;4.30;99.90;;;;;;5020870;28;20231;-83
2022/09/29 00:23:31;;;;;;;15.73;11.67;;;4.30;99.90;;;;;;5019294;28;20240;-82
2022/09/29 00:26:07;;;;;;;19.70;12.73;;;4.20;99.90;;;;;;5022680;28;20221;-82
2022/09/29 00:28:35;;;;;;;17.20;12.10;;;4.20;99.90;;;;;;5024602;28;20238;-82
2022/09/29 00:31:03;;;;;;;12.87;9.83;;;4.20;99.90;;;;;;5022447;28;20239;-83
2022/09/29 00:33:32;;;;;;;17.27;12.03;;;4.20;99.90;;;;;;5035994;28;20244;-83
2022/09/29 00:36:01;;;;;;;17.00;11.83;;;4.10;99.90;;;;;;5023219;28;20233;-82
2022/09/29 00:38:29;;;;;;;15.87;11.90;;;4.10;99.90;;;;;;5037672;28;21068;-82
2022/09/29 00:40:56;;;;;;;18.23;11.93;;;4.10;99.90;;;;;;5020451;28;20276;-83
2022/09/29 00:43:24;;;;;;;16.97;12.40;;;4.10;99.90;;;;;;5019482;28;20239;-83
2022/09/29 00:45:54;;;;;;;17.00;12.20;;;4.10;99.90;;;;;;5019638;28;20229;-83
2022/09/29 00:48:29;;;;;;;18.07;12.37;;;4.10;99.90;;;;;;5037996;28;20227;-84
2022/09/29 00:51:12;;;;;;;16.63;12.00;;;4.10;99.90;;;;;;5087018;27;20683;-82
2022/09/29 00:53:41;;;;;;;17.83;11.97;;;4.00;99.90;;;;;;5075785;28;20318;-82
2022/09/29 00:56:11;;;;;;;13.20;9.40;;;4.00;99.90;;;;;;5082109;28;20239;-82
2022/09/29 00:58:42;;;;;;;13.53;9.83;;;4.00;99.90;;;;;;5067566;28;20348;-82
2022/09/29 01:01:10;;;;;;;13.27;10.77;;;4.00;99.90;;;;;;5079102;28;20246;-82
2022/09/29 01:03:41;;;;;;;16.20;11.37;;;3.90;99.90;;;;;;5060648;28;20222;-82
2022/09/29 01:06:14;;;;;;;13.03;9.93;;;3.90;99.90;;;;;;5072247;28;20358;-81
2022/09/29 01:08:46;;;;;;;14.47;10.77;;;3.90;99.90;;;;;;5079532;28;20238;-81
2022/09/29 01:11:14;;;;;;;14.47;10.80;;;3.80;99.90;;;;;;5077435;28;20754;-82
2022/09/29 01:13:41;;;;;;;15.53;10.97;;;3.80;99.90;;;;;;5070750;28;20314;-82
2022/09/29 01:16:08;;;;;;;15.63;10.97;;;3.80;99.90;;;;;;5082597;28;20274;-82
2022/09/29 01:18:35;;;;;;;16.67;11.53;;;3.80;99.90;;;;;;5063677;28;20270;-81
2022/09/29 01:21:24;;;;;;;15.60;10.77;;;3.70;99.90;;;;;;5071132;28;20310;-82
2022/09/29 01:24:48;;;;;;;15.63;10.50;;;3.70;99.90;;;;;;5074490;28;20927;-82
2022/09/29 01:27:21;;;;;;;12.70;10.03;;;3.70;99.90;;;;;;5036634;28;20234;-81
2022/09/29 01:30:06;;;;;;;15.90;10.37;;;3.70;99.90;;;;;;5057980;28;20223;-82
2022/09/29 01:32:46;;;;;;;24.47;10.77;;;3.70;99.90;;;;;;5037021;28;20315;-82
2022/09/29 01:35:17;;;;;;;15.20;10.83;;;3.70;99.90;;;;;;5072379;28;20878;-81
2022/09/29 01:37:54;;;;;;;13.37;10.33;;;3.70;99.90;;;;;;5073405;28;20512;-80
2022/09/29 01:40:29;;;;;;;14.77;9.83;;;3.70;99.90;;;;;;5069877;28;20223;-80
2022/09/29 01:43:03;;;;;;;17.63;9.80;;;3.70;99.90;;;;;;5073706;28;20226;-82
2022/09/29 01:45:33;;;;;;;33.50;11.63;;;3.70;99.90;;;;;;5081194;28;20363;-81
2022/09/29 01:48:06;;;;;;;15.47;11.43;;;3.70;99.90;;;;;;5060582;28;20889;-80
2022/09/29 01:50:37;;;;;;;15.17;10.93;;;3.70;99.90;;;;;;5081190;28;20563;-80
2022/09/29 01:53:10;;;;;;;17.93;12.23;;;3.70;99.90;;;;;;5078098;28;20318;-82
2022/09/29 01:55:43;;;;;;;14.50;10.90;;;3.70;99.90;;;;;;5077077;28;20286;-81
2022/09/29 01:58:16;;;;;;;18.07;11.47;;;3.80;99.90;;;;;;5062782;28;20235;-81
2022/09/29 02:00:49;;;;;;;15.93;11.03;;;3.80;99.90;;;;;;5073903;28;20222;-81
2022/09/29 02:03:21;;;;;;;17.33;11.23;;;3.80;99.90;;;;;;5065233;28;20221;-81
2022/09/29 02:05:51;;;;;;;25.07;11.30;;;3.80;99.90;;;;;;5060078;28;20343;-81
2022/09/29 02:08:24;;;;;;;13.33;10.03;;;3.80;99.90;;;;;;5036383;28;20224;-81
2022/09/29 02:10:58;;;;;;;13.50;9.97;;;3.80;99.90;;;;;;5051144;28;20227;-81
2022/09/29 02:13:25;;;;;;;13.30;10.00;;;3.80;99.90;;;;;;5045322;28;20234;-81
2022/09/29 02:15:56;;;;;;;14.70;11.33;;;3.70;99.90;;;;;;5062355;28;20258;-81
2022/09/29 02:18:28;;;;;;;13.70;9.57;;;3.70;99.90;;;;;;5041988;28;20216;-82
2022/09/29 02:20:55;;;;;;;12.53;9.57;;;3.70;99.90;;;;;;5055977;28;20223;-81
2022/09/29 02:23:21;;;;;;;13.70;10.40;;;3.60;99.90;;;;;;5041242;28;20220;-82
2022/09/29 02:25:50;;;;;;;13.63;9.57;;;3.60;99.90;;;;;;5058194;28;20224;-81
2022/09/29 02:28:18;;;;;;;16.03;10.13;;;3.60;99.90;;;;;;5057093;28;20219;-81
2022/09/29 02:30:46;;;;;;;15.73;10.67;;;3.60;99.90;;;;;;5066766;28;20314;-81
2022/09/29 02:33:20;;;;;;;15.90;10.77;;;3.50;99.90;;;;;;5062339;28;20223;-82
2022/09/29 02:36:02;;;;;;;13.20;10.47;;;3.50;99.90;;;;;;5057013;28;20250;-82
2022/09/29 02:38:40;;;;;;;15.13;11.03;;;3.50;99.90;;;;;;5053823;28;21959;-81
2022/09/29 02:41:13;;;;;;;16.83;11.37;;;3.50;99.90;;;;;;5065081;28;20220;-81
2022/09/29 02:43:58;;;;;;;17.80;10.00;;;3.60;99.90;;;;;;5050375;28;20250;-81
2022/09/29 02:46:41;;;;;;;13.40;10.00;;;3.60;99.90;;;;;;5058498;28;20243;-82
2022/09/29 02:49:25;;;;;;;14.33;10.00;;;3.60;99.90;;;;;;5040430;28;20228;-82
2022/09/29 02:51:57;;;;;;;14.03;10.50;;;3.60;99.90;;;;;;5061635;28;20231;-81
2022/09/29 02:54:42;;;;;;;16.33;10.67;;;3.60;99.90;;;;;;5054431;28;20225;-81
2022/09/29 02:57:19;;;;;;;14.67;10.83;;;3.60;99.90;;;;;;5060339;28;20254;-79
2022/09/29 02:59:52;;;;;;;14.57;10.33;;;3.60;99.90;;;;;;5062213;28;20690;-79
2022/09/29 03:02:23;;;;;;;17.53;11.13;;;3.60;99.90;;;;;;5044932;28;20228;-79
2022/09/29 03:04:51;;;;;;;15.63;11.37;;;3.60;99.90;;;;;;5062299;28;20293;-79
2022/09/29 03:07:19;;;;;;;14.77;10.17;;;3.60;99.90;;;;;;5059903;28;20641;-80
2022/09/29 03:09:46;;;;;;;16.53;10.37;;;3.60;99.90;;;;;;5042594;28;20881;-80
2022/09/29 03:12:13;;;;;;;15.70;10.97;;;3.60;99.90;;;;;;5058543;28;21746;-80
2022/09/29 03:14:39;;;;;;;13.80;9.60;;;3.60;99.90;;;;;;5057828;28;20240;-80
2022/09/29 03:17:06;;;;;;;12.47;9.10;;;3.50;99.90;;;;;;5050814;28;20234;-81
2022/09/29 03:19:33;;;;;;;16.10;10.70;;;3.60;99.90;;;;;;5035674;28;20224;-80
2022/09/29 03:21:59;;;;;;;16.17;9.53;;;3.50;99.90;;;;;;5039111;28;20591;-80
2022/09/29 03:24:27;;;;;;;16.23;10.20;;;3.50;99.90;;;;;;5068940;28;20226;-81
2022/09/29 03:26:54;;;;;;;14.50;10.67;;;3.50;99.90;;;;;;5061576;28;20230;-80
2022/09/29 03:29:20;;;;;;;21.87;14.10;;;3.50;99.90;;;;;;5042354;28;20227;-81
2022/09/29 03:31:47;;;;;;;17.27;11.10;;;3.50;99.90;;;;;;5062850;28;20231;-80
2022/09/29 03:34:14;;;;;;;23.00;14.07;;;3.50;99.90;;;;;;5057467;28;20220;-80
2022/09/29 03:36:41;;;;;;;87.33;16.50;;;3.50;99.90;;;;;;5059112;28;20637;-80
2022/09/29 03:39:08;;;;;;;22.63;16.13;;;3.50;99.90;;;;;;5059699;28;20227;-81
2022/09/29 03:41:36;;;;;;;21.47;14.30;;;3.50;99.90;;;;;;5054427;28;20228;-81
2022/09/29 03:44:03;;;;;;;25.40;16.63;;;3.40;99.90;;;;;;5042457;28;20228;-80
2022/09/29 03:46:29;;;;;;;35.50;24.17;;;3.40;99.90;;;;;;5059672;28;20227;-80
2022/09/29 03:48:56;;;;;;;32.33;23.20;;;3.40;99.90;;;;;;5062860;28;20288;-80
2022/09/29 03:51:23;;;;;;;28.03;20.63;;;3.40;99.90;;;;;;5056566;28;20223;-81
2022/09/29 03:53:50;;;;;;;18.73;13.77;;;3.40;99.90;;;;;;5057562;28;20216;-81
2022/09/29 03:56:16;;;;;;;18.33;13.03;;;3.40;99.90;;;;;;5061308;28;20270;-80
2022/09/29 03:58:44;;;;;;;15.77;11.30;;;3.40;99.90;;;;;;5057630;28;20248;-81
2022/09/29 04:01:11;;;;;;;18.30;10.73;;;3.40;99.90;;;;;;5052233;28;20820;-80
2022/09/29 04:03:38;;;;;;;16.30;9.97;;;3.40;99.90;;;;;;5054469;28;20227;-80
2022/09/29 04:06:05;;;;;;;15.07;10.10;;;3.40;99.90;;;;;;5058799;28;20233;-80
2022/09/29 04:08:32;;;;;;;29.67;11.97;;;3.40;99.90;;;;;;5062505;28;20641;-80
2022/09/29 04:10:58;;;;;;;16.43;11.57;;;3.40;99.90;;;;;;5060762;28;20225;-81
2022/09/29 04:13:25;;;;;;;16.47;10.70;;;3.40;99.90;;;;;;5045111;28;20303;-82
2022/09/29 04:15:57;;;;;;;16.63;11.77;;;3.50;99.90;;;;;;5055756;28;20665;-81
2022/09/29 04:18:24;;;;;;;19.77;11.53;;;3.50;99.90;;;;;;5055947;28;20236;-83
2022/09/29 04:20:51;;;;;;;16.77;11.27;;;3.50;99.90;;;;;;5038873;28;20220;-82
2022/09/29 04:23:18;;;;;;;18.10;11.73;;;3.50;99.90;;;;;;5040061;28;20219;-81
2022/09/29 04:25:45;;;;;;;17.40;11.47;;;3.50;99.90;;;;;;5061800;28;20238;-83
2022/09/29 04:28:11;;;;;;;15.20;10.60;;;3.60;99.90;;;;;;5059707;28;20223;-82
2022/09/29 04:30:38;;;;;;;19.13;10.80;;;3.60;99.90;;;;;;5046209;28;20586;-81
2022/09/29 04:33:06;;;;;;;36.67;12.60;;;3.60;99.90;;;;;;5055967;28;20228;-83
2022/09/29 04:35:33;;;;;;;17.33;11.60;;;3.60;99.90;;;;;;5047767;28;20401;-80
2022/09/29 04:37:59;;;;;;;23.10;11.63;;;3.60;99.90;;;;;;5043956;28;20766;-84
2022/09/29 04:40:26;;;;;;;17.97;10.77;;;3.70;99.90;;;;;;5046926;28;20220;-85
2022/09/29 04:42:53;;;;;;;18.20;11.70;;;3.70;99.90;;;;;;5043625;28;20227;-86
2022/09/29 04:45:19;;;;;;;17.53;12.00;;;3.70;99.90;;;;;;5040490;28;20223;-85
2022/09/29 04:47:46;;;;;;;16.77;11.83;;;3.70;99.90;;;;;;5039327;28;20219;-86
2022/09/29 04:50:14;;;;;;;15.03;11.20;;;3.70;99.90;;;;;;5052939;28;20226;-84
2022/09/29 04:52:42;;;;;;;19.80;11.13;;;3.70;99.90;;;;;;5053856;28;20232;-86
2022/09/29 04:55:11;;;;;;;20.17;11.60;;;3.80;99.90;;;;;;5059303;28;20232;-84
2022/09/29 04:57:38;;;;;;;17.97;11.67;;;3.80;99.90;;;;;;5055711;28;20227;-84
2022/09/29 05:00:06;;;;;;;19.47;12.40;;;3.80;99.90;;;;;;5056923;28;20318;-85
2022/09/29 05:02:33;;;;;;;17.27;11.67;;;3.80;99.90;;;;;;5043862;28;20243;-85
2022/09/29 05:05:00;;;;;;;81.57;15.40;;;3.80;99.90;;;;;;5085003;28;20231;-85
2022/09/29 05:07:30;;;;;;;21.03;10.83;;;3.80;99.90;;;;;;5043507;28;20244;-85
2022/09/29 05:09:56;;;;;;;19.73;12.33;;;3.90;99.90;;;;;;5041940;28;20610;-84
2022/09/29 05:12:23;;;;;;;18.17;11.80;;;3.90;99.90;;;;;;5059796;28;20223;-87
2022/09/29 05:14:50;;;;;;;18.17;12.00;;;3.90;99.90;;;;;;5061604;28;22131;-86
2022/09/29 05:17:16;;;;;;;18.43;11.20;;;3.90;99.90;;;;;;5061163;28;20224;-85
2022/09/29 05:19:43;;;;;;;17.10;11.97;;;3.90;99.90;;;;;;5064466;28;20238;-86
2022/09/29 05:22:10;;;;;;;22.07;12.10;;;3.90;99.90;;;;;;5066813;28;20250;-86
2022/09/29 05:24:38;;;;;;;18.87;11.90;;;4.00;99.90;;;;;;5068592;28;20228;-86
2022/09/29 05:27:05;;;;;;;20.50;12.17;;;4.00;99.90;;;;;;5059529;28;20761;-85
2022/09/29 05:29:33;;;;;;;14.37;10.00;;;4.00;99.90;;;;;;5049153;28;20215;-85
2022/09/29 05:32:00;;;;;;;17.00;10.97;;;4.00;99.90;;;;;;5060440;28;20242;-85
2022/09/29 05:34:27;;;;;;;29.50;11.93;;;4.00;99.90;;;;;;5077204;28;20219;-86
2022/09/29 05:36:55;;;;;;;60.53;13.60;;;4.10;99.90;;;;;;5052020;28;20277;-86
2022/09/29 05:39:21;;;;;;;27.20;13.17;;;4.00;99.90;;;;;;5051241;28;20244;-85
2022/09/29 05:41:50;;;;;;;18.20;12.07;;;4.00;99.90;;;;;;5073350;28;20359;-85
2022/09/29 05:44:17;;;;;;;22.60;12.23;;;4.10;99.90;;;;;;5059001;28;20234;-85
2022/09/29 05:46:45;;;;;;;20.07;11.83;;;4.10;99.90;;;;;;5051159;28;20319;-85
2022/09/29 05:49:11;;;;;;;17.10;11.77;;;4.10;99.90;;;;;;5050535;28;20589;-85
2022/09/29 05:51:38;;;;;;;18.30;12.50;;;4.10;99.90;;;;;;5046232;28;20229;-85
2022/09/29 05:54:05;;;;;;;29.17;12.80;;;4.20;99.90;;;;;;5050181;28;20232;-85
2022/09/29 05:56:32;;;;;;;20.37;12.57;;;4.20;99.90;;;;;;5069110;28;20224;-85
2022/09/29 05:59:00;;;;;;;20.43;13.10;;;4.20;99.90;;;;;;5055765;28;20293;-85
2022/09/29 06:01:27;;;;;;;19.70;13.27;;;4.30;99.90;;;;;;5060532;28;20696;-86
2022/09/29 06:03:54;;;;;;;20.03;13.97;;;4.40;99.90;;;;;;5046879;28;20216;-86
2022/09/29 06:06:23;;;;;;;19.20;12.87;;;4.40;99.90;;;;;;5068997;28;20252;-85
2022/09/29 06:08:50;;;;;;;21.27;12.97;;;4.50;99.90;;;;;;5054229;28;20233;-85
2022/09/29 06:11:19;;;;;;;21.57;13.47;;;4.50;99.90;;;;;;5053906;28;20219;-85
2022/09/29 06:13:47;;;;;;;23.10;14.30;;;4.60;99.90;;;;;;5064368;28;20234;-85
2022/09/29 06:16:17;;;;;;;18.33;13.00;;;4.70;99.90;;;;;;5054082;28;20224;-85
2022/09/29 06:18:43;;;;;;;18.67;13.50;;;4.70;99.90;;;;;;5054291;28;20278;-85
2022/09/29 06:21:12;;;;;;;21.37;13.63;;;4.80;99.90;;;;;;5073564;28;20281;-78
2022/09/29 06:23:39;;;;;;;21.10;13.80;;;4.80;99.90;;;;;;5061632;28;20307;-79
2022/09/29 06:26:08;;;;;;;20.33;12.77;;;4.90;99.90;;;;;;5068366;28;20449;-79
2022/09/29 06:28:35;;;;;;;17.60;12.73;;;5.00;99.90;;;;;;5061294;28;20233;-81
2022/09/29 06:31:04;;;;;;;19.90;13.77;;;5.00;99.90;;;;;;5050703;28;20314;-82
2022/09/29 06:33:35;;;;;;;22.17;13.07;;;5.10;99.90;;;;;;5065851;28;20940;-82
2022/09/29 06:38:49;;;;;;;19.70;12.83;;;5.20;99.90;;;;;;5055384;28;20396;-82
2022/09/29 06:41:16;;;;;;;19.83;13.47;;;5.20;99.90;;;;;;5051233;28;20218;-82
2022/09/29 06:43:42;;;;;;;21.27;13.00;;;5.40;99.90;;;;;;5065739;28;20682;-83
2022/09/29 06:46:09;;;;;;;19.67;13.77;;;5.50;99.90;;;;;;5072776;28;20230;-82
2022/09/29 06:48:37;;;;;;;16.97;13.37;;;5.50;99.90;;;;;;5048307;28;20220;-82
2022/09/29 06:51:06;;;;;;;18.23;13.70;;;5.60;99.90;;;;;;5053995;28;20228;-83
2022/09/29 06:53:33;;;;;;;18.23;12.47;;;5.70;99.90;;;;;;5049245;28;20619;-82
2022/09/29 06:56:00;;;;;;;19.90;13.70;;;5.80;99.90;;;;;;5061643;28;20313;-82
2022/09/29 06:58:27;;;;;;;20.80;13.70;;;5.90;99.90;;;;;;5046824;28;20233;-82
2022/09/29 07:00:54;;;;;;;22.00;14.07;;;6.00;99.90;;;;;;5045219;28;20252;-82
2022/09/29 07:03:21;;;;;;;19.30;14.43;;;6.00;99.90;;;;;;5064014;28;20237;-82
2022/09/29 07:05:49;;;;;;;21.83;14.90;;;6.20;99.90;;;;;;5044961;28;20227;-82
2022/09/29 07:08:16;;;;;;;21.43;14.43;;;6.30;99.90;;;;;;5037045;28;20229;-82
2022/09/29 07:10:42;;;;;;;20.93;14.57;;;6.30;99.90;;;;;;5049808;28;20221;-82
2022/09/29 07:13:09;;;;;;;21.83;15.37;;;6.50;99.90;;;;;;5067066;28;20227;-82
2022/09/29 07:15:36;;;;;;;23.83;15.67;;;6.50;99.90;;;;;;5066511;28;20230;-82
2022/09/29 07:18:05;;;;;;;20.07;15.47;;;6.60;99.90;;;;;;5067319;28;20248;-83
2022/09/29 07:20:32;;;;;;;21.27;15.30;;;6.80;99.90;;;;;;5054802;28;20226;-83
2022/09/29 07:23:00;;;;;;;22.37;15.80;;;6.80;99.90;;;;;;5063363;28;20229;-82
2022/09/29 07:25:27;;;;;;;22.27;17.13;;;6.90;99.90;;;;;;5065816;28;20228;-83
2022/09/29 07:27:54;;;;;;;22.10;16.67;;;7.00;99.90;;;;;;5040981;28;20227;-83
2022/09/29 07:30:21;;;;;;;25.00;16.50;;;7.10;99.90;;;;;;5067407;28;20289;-82
2022/09/29 07:32:48;;;;;;;21.00;16.20;;;7.20;99.90;;;;;;5047709;28;20322;-82
2022/09/29 07:35:15;;;;;;;22.20;16.50;;;7.40;99.90;;;;;;5072338;28;20250;-82
2022/09/29 07:37:41;;;;;;;23.77;16.33;;;7.40;99.90;;;;;;5068396;28;20317;-82
2022/09/29 07:40:10;;;;;;;21.10;15.83;;;7.60;99.90;;;;;;5046750;28;20224;-83
2022/09/29 07:42:37;;;;;;;24.27;17.33;;;7.70;99.90;;;;;;5063807;28;20686;-81
2022/09/29 07:45:04;;;;;;;19.80;15.27;;;7.80;99.90;;;;;;5049935;28;20654;-82
2022/09/29 07:47:31;;;;;;;21.53;16.27;;;7.90;99.90;;;;;;5049144;28;20300;-82
2022/09/29 07:49:59;;;;;;;18.70;14.60;;;8.00;99.90;;;;;;5059256;28;20215;-82
2022/09/29 07:52:25;;;;;;;18.47;14.60;;;8.10;99.90;;;;;;5043191;28;20323;-82
2022/09/29 07:54:52;;;;;;;19.17;14.93;;;8.10;99.90;;;;;;5059319;28;20235;-82
2022/09/29 07:57:20;;;;;;;21.13;15.27;;;8.20;99.90;;;;;;5045744;28;20250;-82
2022/09/29 07:59:46;;;;;;;18.83;15.53;;;8.30;99.90;;;;;;5044045;28;21090;-82
2022/09/29 08:02:13;;;;;;;18.10;14.30;;;8.40;99.90;;;;;;5056711;28;20306;-82
2022/09/29 08:04:40;;;;;;;19.97;15.07;;;8.50;99.90;;;;;;5040607;28;20230;-82
2022/09/29 08:07:07;;;;;;;17.80;14.57;;;8.50;99.90;;;;;;5060917;28;20224;-82
2022/09/29 08:09:34;;;;;;;17.60;13.97;;;8.50;99.90;;;;;;5043767;28;20233;-82
2022/09/29 08:12:01;;;;;;;20.13;15.43;;;8.60;99.90;;;;;;5054515;28;20247;-82
2022/09/29 08:14:29;;;;;;;19.00;14.53;;;8.60;99.90;;;;;;5043464;28;20224;-82
2022/09/29 08:16:56;;;;;;;19.70;14.93;;;8.60;99.90;;;;;;5046107;28;20217;-82
2022/09/29 08:19:24;;;;;;;24.30;17.90;;;8.60;99.90;;;;;;5044567;28;20240;-82
2022/09/29 08:21:50;;;;;;;20.93;15.50;;;8.70;99.90;;;;;;5038255;28;20219;-83
2022/09/29 08:24:17;;;;;;;17.97;14.97;;;8.70;99.90;;;;;;5065138;28;20235;-82
2022/09/29 08:26:44;;;;;;;21.33;14.80;;;8.80;99.90;;;;;;5063080;28;20596;-82
2022/09/29 08:29:11;;;;;;;20.77;15.27;;;8.90;99.90;;;;;;5042931;28;20260;-82
2022/09/29 08:31:40;;;;;;;19.23;16.00;;;9.00;99.90;;;;;;5045544;28;20225;-81
2022/09/29 08:34:07;;;;;;;18.53;14.83;;;9.10;99.90;;;;;;5061991;28;20229;-82
2022/09/29 08:36:35;;;;;;;18.97;14.53;;;9.20;99.90;;;;;;5061898;28;20248;-82
2022/09/29 08:39:02;;;;;;;22.17;15.37;;;9.40;99.90;;;;;;5059405;28;20252;-82
2022/09/29 08:41:40;;;;;;;19.50;14.30;;;9.60;99.90;;;;;;5046865;28;20235;-81
2022/09/29 08:44:12;;;;;;;19.13;14.47;;;9.80;99.90;;;;;;5051421;28;20642;-82
2022/09/29 08:46:46;;;;;;;18.50;15.00;;;10.00;99.90;;;;;;5045356;28;20281;-82
2022/09/29 08:49:19;;;;;;;19.97;14.33;;;10.20;99.90;;;;;;5062205;28;20224;-82
2022/09/29 08:51:49;;;;;;;17.33;14.03;;;10.40;99.90;;;;;;5047717;28;20742;-82
2022/09/29 08:54:29;;;;;;;17.23;13.20;;;10.60;99.90;;;;;;5060137;28;20239;-82
2022/09/29 08:56:56;;;;;;;20.47;14.00;;;10.70;99.90;;;;;;5067202;28;20324;-80
2022/09/29 08:59:26;;;;;;;19.90;14.13;;;10.90;99.90;;;;;;5056530;28;20228;-82
2022/09/29 09:02:13;;;;;;;21.13;13.90;;;11.00;99.90;;;;;;5044255;28;20707;-82
2022/09/29 09:05:05;;;;;;;16.50;12.87;;;11.20;99.90;;;;;;5063979;28;20253;-82
2022/09/29 09:07:39;;;;;;;17.53;12.70;;;11.40;99.90;;;;;;5060409;28;20314;-81
2022/09/29 09:10:19;;;;;;;16.20;12.17;;;11.50;99.90;;;;;;5059364;28;20276;-82
2022/09/29 09:13:17;;;;;;;16.37;12.33;;;11.70;99.90;;;;;;5065060;28;20307;-82
2022/09/29 09:16:10;;;;;;;17.40;11.90;;;11.90;99.90;;;;;;5064898;28;20578;-81
2022/09/29 09:19:19;;;;;;;17.83;12.37;;;12.20;99.90;;;;;;5066585;28;20307;-81
2022/09/29 09:21:52;;;;;;;16.03;11.70;;;12.40;99.90;;;;;;5000364;28;20286;-81
2022/09/29 09:24:28;;;;;;;17.13;12.33;;;12.60;99.90;;;;;;5035366;28;20224;-81
2022/09/29 09:26:56;;;;;;;19.27;12.47;;;12.80;99.90;;;;;;5073211;28;20631;-81
2022/09/29 09:29:28;;;;;;;14.00;11.97;;;12.90;99.90;;;;;;5065526;28;20227;-81
2022/09/29 09:31:59;;;;;;;17.67;12.30;;;13.10;99.90;;;;;;5063604;28;20223;-81
2022/09/29 09:34:33;;;;;;;14.13;11.13;;;13.20;99.90;;;;;;5049093;28;20271;-81
2022/09/29 09:37:04;;;;;;;14.67;11.43;;;13.20;99.90;;;;;;5048162;28;20231;-81
2022/09/29 09:39:34;;;;;;;14.93;10.90;;;13.30;99.90;;;;;;5050749;28;20317;-81
2022/09/29 09:42:06;;;;;;;15.40;11.50;;;13.40;99.90;;;;;;5058873;28;20338;-81
2022/09/29 09:44:36;;;;;;;15.17;10.27;;;13.40;99.90;;;;;;5059194;28;20681;-81
2022/09/29 09:47:18;;;;;;;13.40;9.63;;;13.50;99.90;;;;;;5052156;28;20225;-80
2022/09/29 09:49:51;;;;;;;12.40;9.70;;;13.60;99.90;;;;;;5079441;28;20340;-81
2022/09/29 09:52:23;;;;;;;10.10;7.80;;;13.70;99.90;;;;;;5060836;28;20218;-81
2022/09/29 09:54:54;;;;;;;10.27;7.80;;;13.80;99.90;;;;;;5063342;28;20235;-81
2022/09/29 09:57:47;;;;;;;9.63;7.53;;;13.90;99.90;;;;;;5062495;28;20225;-80
2022/09/29 10:00:16;;;;;;;11.40;8.20;;;14.00;99.90;;;;;;5050199;28;20237;-81
2022/09/29 10:02:45;;;;;;;10.57;8.23;;;14.10;99.90;;;;;;5065013;28;20227;-81
2022/09/29 10:05:16;;;;;;;9.93;7.70;;;14.20;99.90;;;;;;5062468;28;20312;-85
2022/09/29 10:07:44;;;;;;;7.60;6.80;;;14.40;99.90;;;;;;5064180;28;20717;-84
2022/09/29 10:10:17;;;;;;;7.50;6.23;;;14.50;99.90;;;;;;5038250;28;20664;-85
2022/09/29 10:12:45;;;;;;;9.07;7.43;;;14.60;99.90;;;;;;5053000;28;20241;-85
2022/09/29 10:15:24;;;;;;;9.30;7.90;;;14.70;99.90;;;;;;5044590;28;20741;-85
2022/09/29 10:18:04;;;;;;;10.87;7.97;;;14.70;99.90;;;;;;5057522;28;20225;-85
2022/09/29 10:20:38;;;;;;;12.53;8.60;;;14.60;99.90;;;;;;5063901;28;20687;-85
2022/09/29 10:23:28;;;;;;;9.13;7.70;;;14.70;99.90;;;;;;5054380;28;20241;-85
2022/09/29 10:25:59;;;;;;;13.90;9.13;;;14.70;99.90;;;;;;5062573;28;20220;-85
2022/09/29 10:28:30;;;;;;;11.57;8.47;;;14.60;99.90;;;;;;5064287;28;20228;-85
2022/09/29 10:30:57;;;;;;;11.53;8.00;;;14.60;99.90;;;;;;5074278;28;20238;-85
2022/09/29 10:33:26;;;;;;;11.33;8.93;;;14.50;99.90;;;;;;5060972;28;20280;-85
2022/09/29 10:36:08;;;;;;;14.73;9.27;;;14.50;99.90;;;;;;5057527;28;20242;-85
2022/09/29 10:38:36;;;;;;;12.67;9.30;;;14.50;99.90;;;;;;5053395;28;20225;-85
2022/09/29 10:41:05;;;;;;;10.87;8.20;;;14.60;99.90;;;;;;5065671;28;20249;-85
2022/09/29 10:43:35;;;;;;;9.23;7.77;;;14.60;99.90;;;;;;5058026;28;20222;-85
2022/09/29 10:46:04;;;;;;;9.33;7.47;;;14.70;99.90;;;;;;5057081;28;20237;-85
2022/09/29 10:48:31;;;;;;;11.37;8.83;;;14.90;99.90;;;;;;5038063;28;20223;-84
2022/09/29 10:50:59;;;;;;;9.57;7.60;;;15.10;99.90;;;;;;5044155;28;20223;-85
2022/09/29 10:53:35;;;;;;;8.53;6.83;;;15.30;99.90;;;;;;5052717;28;20229;-84
2022/09/29 10:56:06;;;;;;;10.67;7.40;;;15.50;99.90;;;;;;5065458;28;20245;-85
2022/09/29 10:58:35;;;;;;;10.40;7.77;;;15.60;99.90;;;;;;5048927;28;20755;-85
2022/09/29 11:01:07;;;;;;;10.60;7.17;;;15.70;99.90;;;;;;5056648;28;20226;-85
2022/09/29 11:03:37;;;;;;;9.30;7.30;;;15.80;99.90;;;;;;5064002;28;20236;-84
2022/09/29 11:06:07;;;;;;;10.17;7.03;;;15.80;99.90;;;;;;5044599;28;20287;-85
2022/09/29 11:08:56;;;;;;;8.60;5.73;;;15.80;99.90;;;;;;5065006;28;20235;-84
2022/09/29 11:11:26;;;;;;;7.10;6.20;;;15.70;99.70;;;;;;5069734;28;20229;-85
2022/09/29 11:13:53;;;;;;;7.23;5.30;;;15.60;99.90;;;;;;5062262;28;20241;-83
2022/09/29 11:16:31;;;;;;;6.03;5.33;;;15.40;99.90;;;;;;5069691;28;20232;-85
2022/09/29 11:19:03;;;;;;;6.57;5.57;;;15.30;99.70;;;;;;5062411;28;20226;-85
2022/09/29 11:22:01;;;;;;;7.47;6.17;;;15.10;99.80;;;;;;5047169;28;20236;-84
2022/09/29 11:24:54;;;;;;;6.70;5.63;;;14.90;99.70;;;;;;5065784;28;20284;-85
2022/09/29 11:27:33;;;;;;;7.90;6.20;;;14.70;99.90;;;;;;5042932;28;20691;-85
2022/09/29 11:30:05;;;;;;;7.13;6.40;;;14.50;99.90;;;;;;5041067;28;20237;-84
2022/09/29 11:32:43;;;;;;;8.83;6.40;;;14.40;99.90;;;;;;5059373;28;20225;-84
2022/09/29 11:35:32;;;;;;;7.70;6.90;;;14.30;99.90;;;;;;5040967;28;20236;-84
2022/09/29 11:38:27;;;;;;;6.90;6.13;;;14.20;99.90;;;;;;5062626;28;20297;-84
2022/09/29 11:41:07;;;;;;;8.27;5.87;;;14.20;99.90;;;;;;5052212;28;20221;-84
2022/09/29 11:43:46;;;;;;;7.37;5.90;;;14.10;99.90;;;;;;5041243;28;21022;-84
2022/09/29 11:46:45;;;;;;;8.57;5.70;;;14.10;99.90;;;;;;5082878;28;20224;-84
2022/09/29 11:49:33;;;;;;;8.43;6.20;;;14.00;99.90;;;;;;5043528;28;20227;-85
2022/09/29 11:52:10;;;;;;;7.03;5.27;;;14.00;99.90;;;;;;5069965;28;20242;-84
2022/09/29 11:54:56;;;;;;;8.20;5.47;;;14.00;99.90;;;;;;5064150;28;20219;-84
2022/09/29 11:57:42;;;;;;;7.37;5.83;;;13.90;99.90;;;;;;5058714;28;20257;-84
2022/09/29 12:00:12;;;;;;;7.90;5.90;;;13.90;99.90;;;;;;5064368;28;20234;-84
2022/09/29 12:03:00;;;;;;;8.47;6.27;;;13.90;99.90;;;;;;5041280;28;20275;-84
2022/09/29 12:05:35;;;;;;;7.20;6.13;;;13.90;99.90;;;;;;5065228;28;20304;-85
2022/09/29 12:08:10;;;;;;;10.10;6.67;;;13.80;99.90;;;;;;5037630;28;20223;-85
2022/09/29 12:10:44;;;;;;;8.20;6.17;;;13.80;99.90;;;;;;5048213;28;20775;-84
2022/09/29 12:13:21;;;;;;;7.90;6.53;;;13.80;99.90;;;;;;5045024;28;20254;-85
2022/09/29 12:15:55;;;;;;;7.40;6.60;;;13.70;99.90;;;;;;5053408;28;20734;-85
2022/09/29 12:18:28;;;;;;;8.83;6.80;;;13.70;99.90;;;;;;5048445;28;20254;-84
2022/09/29 12:20:56;;;;;;;9.10;6.87;;;13.70;99.90;;;;;;5061978;28;20407;-85
2022/09/29 12:23:26;;;;;;;9.33;6.90;;;13.70;99.90;;;;;;5043939;28;20212;-84
2022/09/29 12:25:59;;;;;;;8.90;7.27;;;13.60;99.90;;;;;;5061295;28;20330;-84
2022/09/29 12:28:32;;;;;;;9.60;7.33;;;13.50;99.90;;;;;;5055049;28;20228;-84
2022/09/29 12:31:03;;;;;;;11.23;7.57;;;13.50;99.90;;;;;;5065926;28;20232;-85
2022/09/29 12:33:35;;;;;;;9.57;7.50;;;13.40;99.90;;;;;;5060174;28;20231;-84
2022/09/29 12:39:00;;;;;;;8.33;7.23;;;13.30;99.90;;;;;;5042062;28;20576;-84
2022/09/29 12:41:33;;;;;;;9.83;7.70;;;13.30;99.90;;;;;;5043524;28;20238;-85
2022/09/29 12:44:09;;;;;;;8.20;6.73;;;13.20;99.90;;;;;;5046935;28;20247;-85
2022/09/29 12:46:41;;;;;;;9.43;7.53;;;13.20;99.90;;;;;;5061345;28;20229;-84
2022/09/29 12:49:18;;;;;;;10.80;7.70;;;13.20;99.90;;;;;;5046912;28;20225;-85
2022/09/29 12:51:47;;;;;;;10.17;7.40;;;13.20;99.90;;;;;;5063472;28;20229;-84
2022/09/29 12:54:19;;;;;;;9.33;7.07;;;13.20;99.90;;;;;;5039848;28;20723;-84
2022/09/29 12:56:49;;;;;;;8.63;7.67;;;13.20;99.90;;;;;;5043069;28;20216;-85
2022/09/29 12:59:28;;;;;;;9.57;8.10;;;13.20;99.90;;;;;;5059794;28;20319;-85
2022/09/29 13:01:57;;;;;;;10.80;8.50;;;13.20;99.90;;;;;;5064277;28;20225;-85
2022/09/29 13:05:06;;;;;;;11.17;9.77;;;13.20;99.90;;;;;;5040615;28;20540;-84